sensor_id;sensor_type;location;lat;lon;timestamp;pressure;altitude;pressure_sealevel;temperature;humidity
7834;BME280;3962;42.696;23.354;2023-02-01T00:01:59;95263.81;;;1.96;82.43
7834;BME280;3962;42.696;23.354;2023-02-01T00:04:26;95275.56;;;1.76;83.44
7834;BME280;3962;42.696;23.354;2023-02-01T00:06:53;95270.66;;;1.84;82.72
7834;BME280;3962;42.696;23.354;2023-02-01T00:09:20;95263.63;;;1.99;83.16
7834;BME280;3962;42.696;23.354;2023-02-01T00:11:47;95270.13;;;1.79;82.72
7834;BME280;3962;42.696;23.354;2023-02-01T00:14:15;95269.66;;;1.73;83.49
7834;BME280;3962;42.696;23.354;2023-02-01T00:16:42;95267.69;;;1.76;83.28
7834;BME280;3962;42.696;23.354;2023-02-01T00:19:11;95266.22;;;1.72;82.95
7834;BME280;3962;42.696;23.354;2023-02-01T00:21:38;95275.09;;;1.70;82.77
7834;BME280;3962;42.696;23.354;2023-02-01T00:24:06;95267.88;;;1.73;83.08
7834;BME280;3962;42.696;23.354;2023-02-01T00:26:35;95263.50;;;1.74;82.81
7834;BME280;3962;42.696;23.354;2023-02-01T00:29:04;95275.09;;;1.70;82.55
7834;BME280;3962;42.696;23.354;2023-02-01T00:31:33;95265.72;;;1.80;82.68
7834;BME280;3962;42.696;23.354;2023-02-01T00:34:00;95260.97;;;1.72;82.92
7834;BME280;3962;42.696;23.354;2023-02-01T00:36:26;95258.25;;;1.74;81.92
7834;BME280;3962;42.696;23.354;2023-02-01T00:38:53;95255.81;;;1.71;82.04
7834;BME280;3962;42.696;23.354;2023-02-01T00:41:21;95264.25;;;1.62;82.07
7834;BME280;3962;42.696;23.354;2023-02-01T00:43:49;95261.06;;;1.71;82.54
7834;BME280;3962;42.696;23.354;2023-02-01T00:46:17;95250.84;;;1.52;81.96
7834;BME280;3962;42.696;23.354;2023-02-01T00:48:46;95256.19;;;1.65;81.49
7834;BME280;3962;42.696;23.354;2023-02-01T00:51:15;95246.63;;;1.64;81.06
7834;BME280;3962;42.696;23.354;2023-02-01T00:53:42;95252.16;;;1.59;81.36
7834;BME280;3962;42.696;23.354;2023-02-01T00:56:09;95243.56;;;1.57;80.28
7834;BME280;3962;42.696;23.354;2023-02-01T00:58:36;95242.81;;;1.55;81.09
7834;BME280;3962;42.696;23.354;2023-02-01T01:01:05;95247.69;;;1.61;80.73
7834;BME280;3962;42.696;23.354;2023-02-01T01:03:33;95256.75;;;1.70;80.59
7834;BME280;3962;42.696;23.354;2023-02-01T01:06:04;95248.59;;;1.74;79.46
7834;BME280;3962;42.696;23.354;2023-02-01T01:08:31;95249.44;;;1.75;78.60
7834;BME280;3962;42.696;23.354;2023-02-01T01:10:58;95241.09;;;1.68;79.15
7834;BME280;3962;42.696;23.354;2023-02-01T01:13:25;95247.00;;;1.72;79.30
7834;BME280;3962;42.696;23.354;2023-02-01T01:15:51;95245.50;;;1.68;78.01
7834;BME280;3962;42.696;23.354;2023-02-01T01:18:18;95239.25;;;1.56;78.44
7834;BME280;3962;42.696;23.354;2023-02-01T01:20:45;95242.91;;;1.68;78.47
7834;BME280;3962;42.696;23.354;2023-02-01T01:23:13;95241.09;;;1.68;78.25
7834;BME280;3962;42.696;23.354;2023-02-01T01:25:40;95233.06;;;1.71;77.90
7834;BME280;3962;42.696;23.354;2023-02-01T01:28:07;95238.31;;;1.71;77.85
7834;BME280;3962;42.696;23.354;2023-02-01T01:30:34;95230.66;;;1.54;76.78
7834;BME280;3962;42.696;23.354;2023-02-01T01:33:01;95239.72;;;1.49;76.60
7834;BME280;3962;42.696;23.354;2023-02-01T01:35:29;95239.25;;;1.56;76.82
7834;BME280;3962;42.696;23.354;2023-02-01T01:37:56;95246.84;;;1.61;77.12
7834;BME280;3962;42.696;23.354;2023-02-01T01:40:24;95257.53;;;1.44;76.47
7834;BME280;3962;42.696;23.354;2023-02-01T01:42:51;95259.19;;;1.45;76.15
7834;BME280;3962;42.696;23.354;2023-02-01T01:45:24;95257.81;;;1.39;75.82
7834;BME280;3962;42.696;23.354;2023-02-01T01:47:54;95250.50;;;1.30;75.15
7834;BME280;3962;42.696;23.354;2023-02-01T01:50:24;95246.06;;;1.17;76.38
7834;BME280;3962;42.696;23.354;2023-02-01T01:52:55;95251.44;;;1.15;75.87
7834;BME280;3962;42.696;23.354;2023-02-01T01:55:26;95253.78;;;1.20;76.44
7834;BME280;3962;42.696;23.354;2023-02-01T01:57:57;95241.41;;;1.22;75.44
7834;BME280;3962;42.696;23.354;2023-02-01T02:00:26;95249.94;;;1.25;76.03
7834;BME280;3962;42.696;23.354;2023-02-01T02:02:56;95236.00;;;1.11;75.04
7834;BME280;3962;42.696;23.354;2023-02-01T02:05:24;95243.28;;;1.20;75.40
7834;BME280;3962;42.696;23.354;2023-02-01T02:07:53;95231.78;;;1.08;74.65
7834;BME280;3962;42.696;23.354;2023-02-01T02:10:23;95235.50;;;1.04;75.11
7834;BME280;3962;42.696;23.354;2023-02-01T02:13:12;95242.06;;;1.11;74.87
7834;BME280;3962;42.696;23.354;2023-02-01T02:15:43;95241.59;;;1.05;75.27
7834;BME280;3962;42.696;23.354;2023-02-01T02:18:15;95235.22;;;0.95;76.55
7834;BME280;3962;42.696;23.354;2023-02-01T02:21:15;95227.56;;;1.06;75.54
7834;BME280;3962;42.696;23.354;2023-02-01T02:35:57;95236.53;;;0.88;76.11
7834;BME280;3962;42.696;23.354;2023-02-01T02:38:30;95241.84;;;0.86;75.83
7834;BME280;3962;42.696;23.354;2023-02-01T02:41:05;95243.75;;;0.98;75.90
7834;BME280;3962;42.696;23.354;2023-02-01T02:43:38;95240.09;;;0.87;75.55
7834;BME280;3962;42.696;23.354;2023-02-01T02:46:33;95240.66;;;1.06;76.16
7834;BME280;3962;42.696;23.354;2023-02-01T02:49:23;95229.69;;;1.13;75.02
7834;BME280;3962;42.696;23.354;2023-02-01T02:51:59;95224.66;;;1.10;76.37
7834;BME280;3962;42.696;23.354;2023-02-01T02:54:48;95223.78;;;1.10;76.89
7834;BME280;3962;42.696;23.354;2023-02-01T02:57:19;95231.38;;;1.00;76.74
7834;BME280;3962;42.696;23.354;2023-02-01T03:00:07;95231.38;;;1.00;77.62
7834;BME280;3962;42.696;23.354;2023-02-01T03:02:53;95223.97;;;0.93;77.33
7834;BME280;3962;42.696;23.354;2023-02-01T03:05:41;95238.75;;;0.94;77.40
7834;BME280;3962;42.696;23.354;2023-02-01T03:08:11;95237.47;;;1.01;77.29
7834;BME280;3962;42.696;23.354;2023-02-01T03:10:46;95249.19;;;1.23;75.80
7834;BME280;3962;42.696;23.354;2023-02-01T03:13:20;95253.66;;;1.21;75.29
7834;BME280;3962;42.696;23.354;2023-02-01T03:15:56;95245.06;;;1.19;75.90
7834;BME280;3962;42.696;23.354;2023-02-01T03:18:30;95253.56;;;1.23;74.29
7834;BME280;3962;42.696;23.354;2023-02-01T03:21:00;95252.84;;;1.35;75.09
7834;BME280;3962;42.696;23.354;2023-02-01T03:23:33;95258.75;;;1.38;74.46
7834;BME280;3962;42.696;23.354;2023-02-01T03:26:04;95264.44;;;1.45;74.26
7834;BME280;3962;42.696;23.354;2023-02-01T03:28:33;95264.53;;;1.43;74.37
7834;BME280;3962;42.696;23.354;2023-02-01T03:31:01;95265.94;;;1.35;73.76
7834;BME280;3962;42.696;23.354;2023-02-01T03:33:29;95267.88;;;1.45;74.78
7834;BME280;3962;42.696;23.354;2023-02-01T03:36:02;95269.22;;;1.52;74.44
7834;BME280;3962;42.696;23.354;2023-02-01T03:38:38;95271.84;;;1.38;74.80
7834;BME280;3962;42.696;23.354;2023-02-01T03:41:11;95272.88;;;1.36;73.70
7834;BME280;3962;42.696;23.354;2023-02-01T03:43:46;95268.75;;;1.32;73.66
7834;BME280;3962;42.696;23.354;2023-02-01T03:46:19;95259.75;;;1.22;73.36
7834;BME280;3962;42.696;23.354;2023-02-01T03:48:48;95265.94;;;1.21;74.25
7834;BME280;3962;42.696;23.354;2023-02-01T03:51:17;95267.72;;;1.34;73.84
7834;BME280;3962;42.696;23.354;2023-02-01T03:53:48;95265.56;;;1.27;74.27
7834;BME280;3962;42.696;23.354;2023-02-01T03:56:17;95270.72;;;1.14;74.29
7834;BME280;3962;42.696;23.354;2023-02-01T03:58:45;95263.97;;;1.10;73.35
7834;BME280;3962;42.696;23.354;2023-02-01T04:01:25;95260.59;;;1.08;74.28
7834;BME280;3962;42.696;23.354;2023-02-01T04:03:52;95264.59;;;1.00;74.79
7834;BME280;3962;42.696;23.354;2023-02-01T04:06:19;95271.22;;;1.05;73.90
7834;BME280;3962;42.696;23.354;2023-02-01T04:08:48;95265.44;;;1.00;74.44
7834;BME280;3962;42.696;23.354;2023-02-01T04:11:15;95254.69;;;1.05;73.62
7834;BME280;3962;42.696;23.354;2023-02-01T04:13:42;95263.00;;;1.11;74.13
7834;BME280;3962;42.696;23.354;2023-02-01T04:16:08;95253.66;;;1.07;73.61
7834;BME280;3962;42.696;23.354;2023-02-01T04:18:35;95262.34;;;1.08;74.71
7834;BME280;3962;42.696;23.354;2023-02-01T04:21:03;95266.28;;;1.15;73.32
7834;BME280;3962;42.696;23.354;2023-02-01T04:23:30;95258.91;;;1.21;73.65
7834;BME280;3962;42.696;23.354;2023-02-01T04:26:00;95260.69;;;1.21;74.80
7834;BME280;3962;42.696;23.354;2023-02-01T04:28:27;95261.63;;;1.20;73.76
7834;BME280;3962;42.696;23.354;2023-02-01T04:30:54;95266.97;;;1.32;75.26
7834;BME280;3962;42.696;23.354;2023-02-01T04:33:21;95270.53;;;1.31;74.13
7834;BME280;3962;42.696;23.354;2023-02-01T04:35:48;95269.22;;;1.38;74.85
7834;BME280;3962;42.696;23.354;2023-02-01T04:38:15;95255.84;;;1.43;74.34
7834;BME280;3962;42.696;23.354;2023-02-01T04:40:42;95225.59;;;1.23;74.34
7834;BME280;3962;42.696;23.354;2023-02-01T04:43:10;95265.38;;;1.44;74.18
7834;BME280;3962;42.696;23.354;2023-02-01T04:45:37;95252.72;;;1.50;74.27
7834;BME280;3962;42.696;23.354;2023-02-01T04:48:04;95258.81;;;1.37;74.71
7834;BME280;3962;42.696;23.354;2023-02-01T04:50:31;95266.50;;;1.40;74.91
7834;BME280;3962;42.696;23.354;2023-02-01T04:52:58;95259.41;;;1.42;75.26
7834;BME280;3962;42.696;23.354;2023-02-01T04:55:24;95267.81;;;1.47;74.62
7834;BME280;3962;42.696;23.354;2023-02-01T04:57:51;95275.09;;;1.56;74.38
7834;BME280;3962;42.696;23.354;2023-02-01T05:00:20;95279.91;;;1.63;74.61
7834;BME280;3962;42.696;23.354;2023-02-01T05:02:47;95277.53;;;1.73;74.68
7834;BME280;3962;42.696;23.354;2023-02-01T05:05:14;95273.78;;;1.63;75.74
7834;BME280;3962;42.696;23.354;2023-02-01T05:07:42;95272.13;;;1.34;76.45
7834;BME280;3962;42.696;23.354;2023-02-01T05:10:10;95290.84;;;1.42;77.19
7834;BME280;3962;42.696;23.354;2023-02-01T05:12:37;95289.91;;;1.43;77.73
7834;BME280;3962;42.696;23.354;2023-02-01T05:15:31;95294.38;;;1.41;77.34
7834;BME280;3962;42.696;23.354;2023-02-01T05:17:58;95303.31;;;1.38;76.98
7834;BME280;3962;42.696;23.354;2023-02-01T05:20:25;95298.72;;;1.42;78.02
7834;BME280;3962;42.696;23.354;2023-02-01T05:22:52;95300.78;;;1.51;77.42
7834;BME280;3962;42.696;23.354;2023-02-01T05:25:19;95299.94;;;1.50;77.21
7834;BME280;3962;42.696;23.354;2023-02-01T05:27:45;95285.22;;;1.62;76.54
7834;BME280;3962;42.696;23.354;2023-02-01T05:30:13;95289.44;;;1.64;76.83
7834;BME280;3962;42.696;23.354;2023-02-01T05:32:41;95296.94;;;1.70;76.39
7834;BME280;3962;42.696;23.354;2023-02-01T05:35:08;95293.53;;;1.68;76.51
7834;BME280;3962;42.696;23.354;2023-02-01T05:37:35;95300.22;;;1.74;76.87
7834;BME280;3962;42.696;23.354;2023-02-01T05:40:02;95300.50;;;1.55;76.66
7834;BME280;3962;42.696;23.354;2023-02-01T05:42:29;95288.31;;;1.68;75.86
7834;BME280;3962;42.696;23.354;2023-02-01T05:44:56;95300.50;;;1.55;76.17
7834;BME280;3962;42.696;23.354;2023-02-01T05:47:23;95292.25;;;1.61;77.08
7834;BME280;3962;42.696;23.354;2023-02-01T05:49:51;95304.91;;;1.69;76.02
7834;BME280;3962;42.696;23.354;2023-02-01T05:52:17;95303.09;;;1.83;75.57
7834;BME280;3962;42.696;23.354;2023-02-01T05:54:45;95298.69;;;1.84;75.60
7834;BME280;3962;42.696;23.354;2023-02-01T05:57:12;95277.34;;;1.76;75.67
7834;BME280;3962;42.696;23.354;2023-02-01T05:59:39;95296.72;;;1.87;75.51
7834;BME280;3962;42.696;23.354;2023-02-01T06:02:07;95306.44;;;1.99;74.97
7834;BME280;3962;42.696;23.354;2023-02-01T06:04:35;95306.94;;;2.06;75.56
7834;BME280;3962;42.696;23.354;2023-02-01T06:07:03;95302.34;;;2.09;75.06
7834;BME280;3962;42.696;23.354;2023-02-01T06:09:31;95312.81;;;2.09;74.26
7834;BME280;3962;42.696;23.354;2023-02-01T06:11:57;95308.47;;;2.22;73.89
7834;BME280;3962;42.696;23.354;2023-02-01T06:14:24;95302.09;;;2.26;74.07
7834;BME280;3962;42.696;23.354;2023-02-01T06:16:51;95308.28;;;2.25;73.35
7834;BME280;3962;42.696;23.354;2023-02-01T06:19:18;95312.47;;;2.28;74.04
7834;BME280;3962;42.696;23.354;2023-02-01T06:21:45;95302.09;;;2.26;73.58
7834;BME280;3962;42.696;23.354;2023-02-01T06:24:13;95304.72;;;2.26;73.45
7834;BME280;3962;42.696;23.354;2023-02-01T06:26:40;95306.41;;;2.27;73.35
7834;BME280;3962;42.696;23.354;2023-02-01T06:29:09;95305.47;;;2.28;73.09
7834;BME280;3962;42.696;23.354;2023-02-01T06:31:35;95307.56;;;2.36;72.81
7834;BME280;3962;42.696;23.354;2023-02-01T06:34:02;95294.63;;;2.47;72.97
7834;BME280;3962;42.696;23.354;2023-02-01T06:36:29;95300.78;;;2.33;72.95
7834;BME280;3962;42.696;23.354;2023-02-01T06:38:56;95309.38;;;2.35;72.97
7834;BME280;3962;42.696;23.354;2023-02-01T06:41:26;95309.94;;;2.40;73.34
7834;BME280;3962;42.696;23.354;2023-02-01T06:43:52;95317.66;;;2.56;72.52
7834;BME280;3962;42.696;23.354;2023-02-01T06:46:19;95328.94;;;2.70;72.02
7834;BME280;3962;42.696;23.354;2023-02-01T06:48:46;95326.47;;;2.55;71.95
7834;BME280;3962;42.696;23.354;2023-02-01T06:51:23;95330.84;;;2.68;71.67
7834;BME280;3962;42.696;23.354;2023-02-01T06:53:50;95336.66;;;2.73;72.16
7834;BME280;3962;42.696;23.354;2023-02-01T06:56:17;95335.00;;;2.85;71.64
7834;BME280;3962;42.696;23.354;2023-02-01T06:58:45;95326.47;;;2.81;71.10
7834;BME280;3962;42.696;23.354;2023-02-01T07:01:13;95336.88;;;2.83;71.52
7834;BME280;3962;42.696;23.354;2023-02-01T07:03:40;95346.56;;;2.56;71.57
7834;BME280;3962;42.696;23.354;2023-02-01T07:06:08;95349.31;;;2.67;71.50
7834;BME280;3962;42.696;23.354;2023-02-01T07:08:36;95345.03;;;3.56;78.92
7834;BME280;3962;42.696;23.354;2023-02-01T07:11:04;95360.22;;;4.38;80.18
7834;BME280;3962;42.696;23.354;2023-02-01T07:13:31;95353.50;;;5.17;77.62
7834;BME280;3962;42.696;23.354;2023-02-01T07:16:00;95352.22;;;4.76;70.83
7834;BME280;3962;42.696;23.354;2023-02-01T07:18:27;95369.16;;;4.61;72.30
7834;BME280;3962;42.696;23.354;2023-02-01T07:20:55;95370.47;;;4.30;67.60
7834;BME280;3962;42.696;23.354;2023-02-01T07:23:22;95361.03;;;3.78;67.66
7834;BME280;3962;42.696;23.354;2023-02-01T07:25:53;95366.56;;;3.36;68.40
7834;BME280;3962;42.696;23.354;2023-02-01T07:28:20;95360.41;;;3.11;68.88
7834;BME280;3962;42.696;23.354;2023-02-01T07:30:47;95364.63;;;3.13;68.66
7834;BME280;3962;42.696;23.354;2023-02-01T07:33:18;95375.56;;;3.20;69.39
7834;BME280;3962;42.696;23.354;2023-02-01T07:35:45;95369.16;;;3.11;69.28
7834;BME280;3962;42.696;23.354;2023-02-01T07:38:12;95367.44;;;3.10;69.16
7834;BME280;3962;42.696;23.354;2023-02-01T07:40:39;95374.13;;;2.89;69.80
7834;BME280;3962;42.696;23.354;2023-02-01T07:43:06;95382.44;;;2.96;69.89
7834;BME280;3962;42.696;23.354;2023-02-01T07:45:33;95374.56;;;2.96;69.45
7834;BME280;3962;42.696;23.354;2023-02-01T07:48:00;95375.38;;;2.84;69.59
7834;BME280;3962;42.696;23.354;2023-02-01T07:50:29;95384.06;;;3.11;69.70
7834;BME280;3962;42.696;23.354;2023-02-01T07:52:58;95381.34;;;3.12;69.48
7834;BME280;3962;42.696;23.354;2023-02-01T07:55:25;95388.31;;;3.26;68.53
7834;BME280;3962;42.696;23.354;2023-02-01T07:57:52;95398.25;;;3.08;68.88
7834;BME280;3962;42.696;23.354;2023-02-01T08:00:19;95402.25;;;3.14;68.90
7834;BME280;3962;42.696;23.354;2023-02-01T08:03:04;95410.38;;;3.23;68.93
7834;BME280;3962;42.696;23.354;2023-02-01T08:05:32;95396.66;;;3.06;68.96
7834;BME280;3962;42.696;23.354;2023-02-01T08:07:59;95410.34;;;3.11;68.69
7834;BME280;3962;42.696;23.354;2023-02-01T08:10:26;95414.75;;;3.10;69.21
7834;BME280;3962;42.696;23.354;2023-02-01T08:12:57;95402.50;;;3.23;69.23
7834;BME280;3962;42.696;23.354;2023-02-01T08:15:25;95397.47;;;3.20;68.41
7834;BME280;3962;42.696;23.354;2023-02-01T08:17:52;95411.16;;;3.38;68.44
7834;BME280;3962;42.696;23.354;2023-02-01T08:20:20;95394.50;;;3.51;68.02
7834;BME280;3962;42.696;23.354;2023-02-01T08:22:49;95403.50;;;3.47;67.68
7834;BME280;3962;42.696;23.354;2023-02-01T08:25:17;95405.50;;;3.43;67.62
7834;BME280;3962;42.696;23.354;2023-02-01T08:27:44;95406.03;;;3.36;67.61
7834;BME280;3962;42.696;23.354;2023-02-01T08:30:12;95399.91;;;3.36;67.77
7834;BME280;3962;42.696;23.354;2023-02-01T08:32:39;95410.13;;;3.52;68.04
7834;BME280;3962;42.696;23.354;2023-02-01T08:35:06;95411.69;;;3.30;67.67
7834;BME280;3962;42.696;23.354;2023-02-01T08:37:35;95408.34;;;3.41;67.28
7834;BME280;3962;42.696;23.354;2023-02-01T08:40:04;95410.13;;;3.52;67.29
7834;BME280;3962;42.696;23.354;2023-02-01T08:42:31;95400.25;;;3.56;67.21
7834;BME280;3962;42.696;23.354;2023-02-01T08:45:16;95403.28;;;3.50;66.17
7834;BME280;3962;42.696;23.354;2023-02-01T08:47:44;95404.47;;;3.46;66.39
7834;BME280;3962;42.696;23.354;2023-02-01T08:50:12;95404.06;;;3.64;66.45
7834;BME280;3962;42.696;23.354;2023-02-01T08:52:39;95374.91;;;3.92;66.40
7834;BME280;3962;42.696;23.354;2023-02-01T08:55:08;95400.50;;;4.15;64.66
7834;BME280;3962;42.696;23.354;2023-02-01T08:57:35;95406.28;;;4.33;64.18
7834;BME280;3962;42.696;23.354;2023-02-01T09:00:05;95400.38;;;4.29;63.92
7834;BME280;3962;42.696;23.354;2023-02-01T09:02:32;95397.41;;;4.46;63.76
7834;BME280;3962;42.696;23.354;2023-02-01T09:04:59;95390.72;;;4.17;63.34
7834;BME280;3962;42.696;23.354;2023-02-01T09:07:26;95411.34;;;4.23;63.78
7834;BME280;3962;42.696;23.354;2023-02-01T09:09:52;95399.75;;;4.26;64.27
7834;BME280;3962;42.696;23.354;2023-02-01T09:12:23;95409.66;;;4.10;64.39
7834;BME280;3962;42.696;23.354;2023-02-01T09:14:49;95405.34;;;4.21;64.42
7834;BME280;3962;42.696;23.354;2023-02-01T09:17:16;95414.41;;;4.30;63.47
7834;BME280;3962;42.696;23.354;2023-02-01T09:19:43;95411.97;;;4.39;63.30
7834;BME280;3962;42.696;23.354;2023-02-01T09:22:10;95416.59;;;4.48;62.61
7834;BME280;3962;42.696;23.354;2023-02-01T09:24:36;95418.03;;;4.65;62.46
7834;BME280;3962;42.696;23.354;2023-02-01T09:27:03;95408.69;;;4.48;62.80
7834;BME280;3962;42.696;23.354;2023-02-01T09:29:32;95407.84;;;4.48;62.78
7834;BME280;3962;42.696;23.354;2023-02-01T09:31:58;95408.91;;;4.45;62.73
7834;BME280;3962;42.696;23.354;2023-02-01T09:34:25;95404.75;;;4.66;62.84
7834;BME280;3962;42.696;23.354;2023-02-01T09:36:52;95404.31;;;4.72;62.01
7834;BME280;3962;42.696;23.354;2023-02-01T09:39:19;95393.72;;;4.49;62.85
7834;BME280;3962;42.696;23.354;2023-02-01T09:41:54;95398.16;;;4.36;62.97
7834;BME280;3962;42.696;23.354;2023-02-01T09:44:38;95401.66;;;4.36;63.16
7834;BME280;3962;42.696;23.354;2023-02-01T09:47:15;95397.81;;;4.40;63.92
7834;BME280;3962;42.696;23.354;2023-02-01T09:49:49;95385.16;;;4.58;62.96
7834;BME280;3962;42.696;23.354;2023-02-01T09:52:23;95390.44;;;4.58;62.53
7834;BME280;3962;42.696;23.354;2023-02-01T09:54:54;95375.84;;;4.29;62.85
7834;BME280;3962;42.696;23.354;2023-02-01T09:57:33;95371.72;;;4.37;63.43
7834;BME280;3962;42.696;23.354;2023-02-01T10:00:07;95370.97;;;4.48;62.04
7834;BME280;3962;42.696;23.354;2023-02-01T10:02:40;95356.97;;;4.35;61.61
7834;BME280;3962;42.696;23.354;2023-02-01T10:05:13;95368.66;;;4.43;62.05
7834;BME280;3962;42.696;23.354;2023-02-01T10:07:45;95361.28;;;4.48;61.86
7834;BME280;3962;42.696;23.354;2023-02-01T10:10:17;95361.91;;;4.39;61.90
7834;BME280;3962;42.696;23.354;2023-02-01T10:13:13;95351.19;;;4.42;61.80
7834;BME280;3962;42.696;23.354;2023-02-01T10:16:07;95359.22;;;4.64;61.40
7834;BME280;3962;42.696;23.354;2023-02-01T10:19:10;95354.13;;;5.55;59.67
7834;BME280;3962;42.696;23.354;2023-02-01T10:21:51;95331.59;;;5.51;57.99
7834;BME280;3962;42.696;23.354;2023-02-01T10:24:31;95331.84;;;5.70;58.59
7834;BME280;3962;42.696;23.354;2023-02-01T10:27:02;95330.16;;;6.26;57.53
7834;BME280;3962;42.696;23.354;2023-02-01T10:29:36;95335.16;;;6.73;55.45
7834;BME280;3962;42.696;23.354;2023-02-01T10:32:15;95324.69;;;6.71;54.91
7834;BME280;3962;42.696;23.354;2023-02-01T10:34:44;95315.84;;;6.93;54.94
7834;BME280;3962;42.696;23.354;2023-02-01T10:37:23;95310.84;;;6.79;54.89
7834;BME280;3962;42.696;23.354;2023-02-01T10:39:52;95315.69;;;6.63;54.64
7834;BME280;3962;42.696;23.354;2023-02-01T10:42:23;95326.50;;;6.60;54.61
7834;BME280;3962;42.696;23.354;2023-02-01T10:44:50;95310.78;;;6.36;55.44
7834;BME280;3962;42.696;23.354;2023-02-01T10:47:19;95297.13;;;6.31;55.13
7834;BME280;3962;42.696;23.354;2023-02-01T10:49:52;95293.16;;;6.15;56.07
7834;BME280;3962;42.696;23.354;2023-02-01T10:52:25;95304.78;;;6.01;56.06
7834;BME280;3962;42.696;23.354;2023-02-01T10:54:55;95297.06;;;5.76;56.20
7834;BME280;3962;42.696;23.354;2023-02-01T10:57:23;95298.97;;;5.74;56.64
7834;BME280;3962;42.696;23.354;2023-02-01T10:59:51;95297.34;;;5.84;56.66
7834;BME280;3962;42.696;23.354;2023-02-01T11:02:25;95292.69;;;5.88;56.48
7834;BME280;3962;42.696;23.354;2023-02-01T11:05:00;95301.59;;;5.63;56.36
7834;BME280;3962;42.696;23.354;2023-02-01T11:07:28;95301.00;;;5.60;57.34
7834;BME280;3962;42.696;23.354;2023-02-01T11:09:55;95293.38;;;5.90;55.96
7834;BME280;3962;42.696;23.354;2023-02-01T11:12:31;95295.66;;;5.94;55.47
7834;BME280;3962;42.696;23.354;2023-02-01T11:15:01;95298.31;;;6.16;56.74
7834;BME280;3962;42.696;23.354;2023-02-01T11:17:33;95274.25;;;6.52;55.74
7834;BME280;3962;42.696;23.354;2023-02-01T11:20:03;95286.91;;;5.94;55.34
7834;BME280;3962;42.696;23.354;2023-02-01T11:22:30;95292.31;;;6.03;55.08
7834;BME280;3962;42.696;23.354;2023-02-01T11:24:58;95285.00;;;5.96;55.73
7834;BME280;3962;42.696;23.354;2023-02-01T11:27:27;95290.63;;;6.24;55.99
7834;BME280;3962;42.696;23.354;2023-02-01T11:29:57;95275.00;;;6.32;55.87
7834;BME280;3962;42.696;23.354;2023-02-01T11:32:26;95282.69;;;6.35;56.49
7834;BME280;3962;42.696;23.354;2023-02-01T11:34:57;95282.69;;;6.24;54.89
7834;BME280;3962;42.696;23.354;2023-02-01T11:37:30;95279.06;;;6.47;55.17
7834;BME280;3962;42.696;23.354;2023-02-01T11:40:00;95281.50;;;6.82;54.47
7834;BME280;3962;42.696;23.354;2023-02-01T11:42:28;95270.25;;;7.00;54.08
7834;BME280;3962;42.696;23.354;2023-02-01T11:45:16;95279.19;;;6.88;53.74
7834;BME280;3962;42.696;23.354;2023-02-01T11:47:43;95250.88;;;6.79;52.60
7834;BME280;3962;42.696;23.354;2023-02-01T11:50:16;95260.31;;;6.61;54.72
7834;BME280;3962;42.696;23.354;2023-02-01T11:53:09;95266.25;;;6.74;54.93
7834;BME280;3962;42.696;23.354;2023-02-01T11:55:55;95240.19;;;6.70;55.00
7834;BME280;3962;42.696;23.354;2023-02-01T11:58:39;95249.59;;;6.63;55.48
7834;BME280;3962;42.696;23.354;2023-02-01T12:04:40;95243.44;;;6.73;54.23
7834;BME280;3962;42.696;23.354;2023-02-01T12:07:16;95227.88;;;6.91;55.12
7834;BME280;3962;42.696;23.354;2023-02-01T12:09:57;95236.28;;;6.85;54.66
7834;BME280;3962;42.696;23.354;2023-02-01T12:12:34;95242.66;;;6.82;54.65
7834;BME280;3962;42.696;23.354;2023-02-01T12:15:20;95237.31;;;6.73;53.74
7834;BME280;3962;42.696;23.354;2023-02-01T12:23:56;95245.38;;;6.60;54.79
7834;BME280;3962;42.696;23.354;2023-02-01T12:26:42;95239.09;;;6.72;54.38
7834;BME280;3962;42.696;23.354;2023-02-01T12:29:26;95246.28;;;6.81;54.75
7834;BME280;3962;42.696;23.354;2023-02-01T12:32:18;95239.16;;;6.93;54.93
7834;BME280;3962;42.696;23.354;2023-02-01T12:35:03;95248.53;;;6.97;54.75
7834;BME280;3962;42.696;23.354;2023-02-01T12:37:48;95242.34;;;6.76;54.16
7834;BME280;3962;42.696;23.354;2023-02-01T12:40:31;95235.13;;;6.78;55.17
7834;BME280;3962;42.696;23.354;2023-02-01T12:43:05;95252.22;;;6.74;53.88
7834;BME280;3962;42.696;23.354;2023-02-01T12:45:39;95245.72;;;6.98;53.89
7834;BME280;3962;42.696;23.354;2023-02-01T12:48:25;95243.50;;;7.14;53.04
7834;BME280;3962;42.696;23.354;2023-02-01T12:50:55;95258.47;;;7.24;52.67
7834;BME280;3962;42.696;23.354;2023-02-01T12:53:28;95221.03;;;7.08;52.10
7834;BME280;3962;42.696;23.354;2023-02-01T12:56:01;95247.91;;;7.45;53.39
7834;BME280;3962;42.696;23.354;2023-02-01T12:58:38;95245.59;;;7.51;51.60
7834;BME280;3962;42.696;23.354;2023-02-01T13:01:11;95238.75;;;8.09;51.19
7834;BME280;3962;42.696;23.354;2023-02-01T13:03:44;95242.09;;;8.01;51.04
7834;BME280;3962;42.696;23.354;2023-02-01T13:06:18;95244.97;;;7.89;51.17
7834;BME280;3962;42.696;23.354;2023-02-01T13:08:48;95245.78;;;7.89;50.29
7834;BME280;3962;42.696;23.354;2023-02-01T13:11:24;95238.97;;;7.46;51.18
7834;BME280;3962;42.696;23.354;2023-02-01T13:13:57;95239.34;;;7.62;51.05
7834;BME280;3962;42.696;23.354;2023-02-01T13:16:28;95239.34;;;7.62;51.24
7834;BME280;3962;42.696;23.354;2023-02-01T13:19:17;95216.66;;;7.59;50.87
7834;BME280;3962;42.696;23.354;2023-02-01T13:21:48;95243.19;;;7.99;50.50
7834;BME280;3962;42.696;23.354;2023-02-01T13:24:36;95233.03;;;8.04;50.19
7834;BME280;3962;42.696;23.354;2023-02-01T13:27:10;95218.56;;;7.57;50.40
7834;BME280;3962;42.696;23.354;2023-02-01T13:29:42;95237.53;;;7.83;50.29
7834;BME280;3962;42.696;23.354;2023-02-01T13:32:33;95217.03;;;7.85;49.92
7834;BME280;3962;42.696;23.354;2023-02-01T13:35:24;95225.94;;;7.54;50.08
7834;BME280;3962;42.696;23.354;2023-02-01T13:41:15;95237.38;;;6.82;51.64
7834;BME280;3962;42.696;23.354;2023-02-01T13:43:53;95229.44;;;6.93;52.48
7834;BME280;3962;42.696;23.354;2023-02-01T13:46:21;95238.28;;;6.92;52.08
7834;BME280;3962;42.696;23.354;2023-02-01T13:48:51;95226.06;;;7.11;52.89
7834;BME280;3962;42.696;23.354;2023-02-01T13:51:33;95234.59;;;7.56;52.27
7834;BME280;3962;42.696;23.354;2023-02-01T13:54:01;95218.84;;;7.54;51.66
7834;BME280;3962;42.696;23.354;2023-02-01T13:56:28;95234.47;;;7.57;51.34
7834;BME280;3962;42.696;23.354;2023-02-01T13:59:37;95233.47;;;7.79;50.68
7834;BME280;3962;42.696;23.354;2023-02-01T14:02:49;95224.31;;;7.62;50.14
7834;BME280;3962;42.696;23.354;2023-02-01T14:08:23;95228.13;;;7.69;51.08
7834;BME280;3962;42.696;23.354;2023-02-01T14:10:53;95234.75;;;7.34;51.72
7834;BME280;3962;42.696;23.354;2023-02-01T14:13:27;95236.44;;;7.03;51.97